Time;durP1;ratioP1;P1;durP2;ratioP2;P2;SDS_P1;SDS_P2;PMS_P1;PMS_P2;Temp;Humidity;BMP_temperature;BMP_pressure;BME280_temperature;BME280_humidity;BME280_pressure;Samples;Min_cycle;Max_cycle;Signal;HPM_P1;HPM_P2
2024/01/06 00:00:07;;;;;;;;;;;;;;;2.85;82.66;99309.50;4982249;28;19926;-82
2024/01/06 00:02:34;;;;;;;;;;;;;;;2.82;82.57;99306.91;4981911;28;20010;-84
2024/01/06 00:05:01;;;;;;;;;;;;;;;2.81;82.51;99307.78;4983895;28;19976;-82
2024/01/06 00:07:28;;;;;;;;;;;;;;;2.71;82.63;99309.50;4986350;28;19926;-82
2024/01/06 00:09:55;;;;;;;;;;;;;;;2.67;82.99;99310.41;4988423;28;19929;-82
2024/01/06 00:12:22;;;;;;;;;;;;;;;2.63;83.17;99309.53;4985531;28;19926;-82
2024/01/06 00:14:49;;;;;;;;;;;;;;;2.73;83.08;99306.06;4989909;28;19996;-81
2024/01/06 00:17:16;;;;;;;;;;;;;;;2.72;82.81;99319.03;4982326;28;19932;-84
2024/01/06 00:19:42;;;;;;;;;;;;;;;2.67;82.89;99313.84;4986944;28;19926;-82
2024/01/06 00:22:09;;;;;;;;;;;;;;;2.56;83.25;99313.88;4985036;28;19926;-82
2024/01/06 00:24:36;;;;;;;;;;;;;;;2.58;83.44;99311.28;4993094;28;20036;-83
2024/01/06 00:27:03;;;;;;;;;;;;;;;2.68;83.06;99318.19;4982752;28;19937;-82
2024/01/06 00:29:29;;;;;;;;;;;;;;;2.60;82.92;99322.50;4993056;28;19925;-82
2024/01/06 00:31:57;;;;;;;;;;;;;;;2.67;83.06;99318.19;4983034;28;19934;-83
2024/01/06 00:34:23;;;;;;;;;;;;;;;2.69;82.76;99325.06;4987767;28;19926;-81
2024/01/06 00:36:50;;;;;;;;;;;;;;;2.61;82.97;99319.91;4982417;28;20024;-86
2024/01/06 00:39:18;;;;;;;;;;;;;;;2.59;82.74;99323.34;4988050;28;19925;-82
2024/01/06 00:41:45;;;;;;;;;;;;;;;2.64;82.78;99321.63;4985610;28;19976;-88
2024/01/06 00:44:11;;;;;;;;;;;;;;;2.62;82.76;99331.09;4985601;28;19930;-88
2024/01/06 00:46:38;;;;;;;;;;;;;;;2.55;82.96;99324.19;4984737;28;19933;-82
2024/01/06 00:49:05;;;;;;;;;;;;;;;2.63;82.82;99319.88;4982697;28;19930;-82
2024/01/06 00:51:32;;;;;;;;;;;;;;;2.66;83.08;99322.47;4987675;28;20199;-82
2024/01/06 00:54:05;;;;;;;;;;;;;;;2.80;82.46;99316.44;4984797;28;19929;-83
2024/01/06 00:56:32;;;;;;;;;;;;;;;2.76;82.24;99320.75;4986491;28;19925;-83
2024/01/06 00:58:58;;;;;;;;;;;;;;;2.76;82.37;99323.34;4980276;28;19933;-82
2024/01/06 01:01:25;;;;;;;;;;;;;;;2.87;82.24;99334.56;4982372;28;20305;-83
2024/01/06 01:03:52;;;;;;;;;;;;;;;2.93;82.02;99333.69;4990827;28;19934;-82
2024/01/06 01:06:19;;;;;;;;;;;;;;;3.03;82.04;99332.81;4985821;28;19944;-83
2024/01/06 01:08:46;;;;;;;;;;;;;;;3.01;81.95;99334.50;4984968;28;19933;-83
2024/01/06 01:11:12;;;;;;;;;;;;;;;2.90;81.83;99338.88;4987057;28;19934;-86
2024/01/06 01:13:39;;;;;;;;;;;;;;;2.94;81.88;99345.75;4983535;28;19959;-84
2024/01/06 01:16:06;;;;;;;;;;;;;;;3.00;81.74;99347.47;4987571;28;20024;-82
2024/01/06 01:18:33;;;;;;;;;;;;;;;3.02;81.92;99345.75;4990065;28;19935;-83
2024/01/06 01:21:00;;;;;;;;;;;;;;;2.91;81.94;99351.84;4988718;28;19926;-83
2024/01/06 01:23:27;;;;;;;;;;;;;;;2.93;82.09;99351.81;4988824;28;19932;-82
2024/01/06 01:25:54;;;;;;;;;;;;;;;2.88;82.34;99356.16;4981638;28;20021;-92
2024/01/06 01:28:21;;;;;;;;;;;;;;;2.88;82.08;99356.16;4975762;28;20022;-83
2024/01/06 01:30:48;;;;;;;;;;;;;;;2.99;81.85;99364.78;4974516;28;19932;-82
2024/01/06 01:33:15;;;;;;;;;;;;;;;2.81;82.16;99370.84;5000714;28;19940;-82
2024/01/06 01:35:42;;;;;;;;;;;;;;;2.70;82.67;99365.66;4985300;28;19937;-84
2024/01/06 01:38:09;;;;;;;;;;;;;;;2.64;82.63;99378.63;4987510;28;19934;-83
2024/01/06 01:40:36;;;;;;;;;;;;;;;2.71;82.34;99372.56;4984670;28;19930;-83
2024/01/06 01:43:03;;;;;;;;;;;;;;;2.70;82.21;99377.75;4990863;28;19925;-82
2024/01/06 01:45:30;;;;;;;;;;;;;;;2.76;81.39;99383.78;4983943;28;19973;-84
2024/01/06 01:47:56;;;;;;;;;;;;;;;2.79;81.30;99382.94;4988862;28;19925;-82
2024/01/06 01:50:27;;;;;;;;;;;;;;;2.79;81.20;99382.94;4986415;28;20019;-84
2024/01/06 01:52:54;;;;;;;;;;;;;;;2.87;81.02;99390.69;4984625;28;19926;-83
2024/01/06 01:55:21;;;;;;;;;;;;;;;2.81;80.81;99382.94;4982248;28;19968;-82
2024/01/06 01:57:48;;;;;;;;;;;;;;;2.83;80.88;99389.00;4986126;28;19929;-84
2024/01/06 02:00:15;;;;;;;;;;;;;;;2.73;81.12;99386.38;4984301;28;19926;-82
2024/01/06 02:02:42;;;;;;;;;;;;;;;2.79;81.25;99393.28;4983652;28;19936;-87
2024/01/06 02:05:09;;;;;;;;;;;;;;;2.96;80.55;99385.50;4992961;28;19949;-83
2024/01/06 02:07:35;;;;;;;;;;;;;;;2.97;80.01;99387.25;4981282;28;19925;-83
2024/01/06 02:10:02;;;;;;;;;;;;;;;3.15;79.11;99385.50;4981175;28;19983;-84
2024/01/06 02:12:29;;;;;;;;;;;;;;;3.16;79.06;99388.09;5001850;28;20025;-86
2024/01/06 02:14:56;;;;;;;;;;;;;;;3.12;79.54;99388.94;4990449;28;20299;-84
2024/01/06 02:17:23;;;;;;;;;;;;;;;3.23;78.83;99394.09;4988359;28;19926;-85
2024/01/06 02:19:49;;;;;;;;;;;;;;;3.43;77.57;99394.94;4989917;28;19932;-83
2024/01/06 02:22:16;;;;;;;;;;;;;;;3.33;78.39;99388.03;4986565;28;19926;-82
2024/01/06 02:24:43;;;;;;;;;;;;;;;3.41;77.86;99394.06;4980438;28;19936;-82
2024/01/06 02:27:11;;;;;;;;;;;;;;;3.34;78.19;99391.50;4988959;28;19937;-84
2024/01/06 02:29:37;;;;;;;;;;;;;;;3.48;77.29;99400.97;4976439;28;19925;-83
2024/01/06 02:32:07;;;;;;;;;;;;;;;3.51;77.11;99394.91;4986931;28;20029;-85
2024/01/06 02:34:38;;;;;;;;;;;;;;;3.46;77.41;99407.91;4982763;28;20384;-83
2024/01/06 02:37:07;;;;;;;;;;;;;;;3.59;77.12;99405.25;4994110;28;20025;-83
2024/01/06 02:39:34;;;;;;;;;;;;;;;3.62;77.22;99407.84;4989607;28;19983;-83
2024/01/06 02:42:01;;;;;;;;;;;;;;;3.58;77.79;99412.19;4988204;28;19933;-83
2024/01/06 02:44:31;;;;;;;;;;;;;;;3.58;77.92;99412.19;4989157;28;19927;-84
2024/01/06 02:46:58;;;;;;;;;;;;;;;3.60;77.41;99405.25;4985415;28;19949;-85
2024/01/06 02:49:24;;;;;;;;;;;;;;;3.52;78.38;99401.84;4995251;28;19940;-84
2024/01/06 02:51:51;;;;;;;;;;;;;;;3.51;78.22;99404.44;4989515;28;19926;-84
2024/01/06 02:54:18;;;;;;;;;;;;;;;3.45;78.91;99406.16;4987746;28;19925;-86
2024/01/06 02:56:46;;;;;;;;;;;;;;;3.37;79.77;99401.88;4989340;28;19980;-83
2024/01/06 02:59:13;;;;;;;;;;;;;;;3.36;79.82;99405.31;4990511;28;19961;-83
2024/01/06 03:01:41;;;;;;;;;;;;;;;3.38;79.67;99408.78;4990963;28;19932;-84
2024/01/06 03:04:08;;;;;;;;;;;;;;;3.29;80.02;99410.53;4984647;28;19996;-82
2024/01/06 03:06:35;;;;;;;;;;;;;;;3.32;79.70;99414.84;4990769;28;19980;-86
2024/01/06 03:09:02;;;;;;;;;;;;;;;3.31;80.20;99418.31;4995389;28;19926;-83
2024/01/06 03:11:28;;;;;;;;;;;;;;;3.26;80.60;99426.09;4994183;28;19947;-83
2024/01/06 03:13:55;;;;;;;;;;;;;;;3.26;80.96;99420.06;4989652;28;19937;-84
2024/01/06 03:16:22;;;;;;;;;;;;;;;3.27;80.96;99426.94;4989003;28;19940;-83
2024/01/06 03:18:49;;;;;;;;;;;;;;;3.29;80.65;99423.50;4988218;28;19941;-84
2024/01/06 03:21:16;;;;;;;;;;;;;;;3.31;80.35;99420.91;4986375;28;19925;-83
2024/01/06 03:23:43;;;;;;;;;;;;;;;3.31;80.23;99418.31;4987836;28;19926;-87
2024/01/06 03:26:11;;;;;;;;;;;;;;;3.37;80.07;99423.47;4984992;28;20005;-83
2024/01/06 03:28:37;;;;;;;;;;;;;;;3.35;80.30;99419.16;4986783;28;19930;-84
2024/01/06 03:31:04;;;;;;;;;;;;;;;3.33;80.62;99428.66;4987361;28;19932;-87
2024/01/06 03:33:31;;;;;;;;;;;;;;;3.35;80.54;99429.53;4983182;28;19989;-86
2024/01/06 03:35:58;;;;;;;;;;;;;;;3.34;80.70;99431.25;4985289;28;20028;-83
2024/01/06 03:38:24;;;;;;;;;;;;;;;3.36;80.68;99436.44;4985803;28;19984;-82
2024/01/06 03:40:51;;;;;;;;;;;;;;;3.39;80.50;99432.13;4980275;28;19933;-82
2024/01/06 03:43:17;;;;;;;;;;;;;;;3.43;80.29;99427.78;4985690;28;20392;-82
2024/01/06 03:45:44;;;;;;;;;;;;;;;3.39;80.22;99426.06;4985815;28;19940;-85
2024/01/06 03:48:14;;;;;;;;;;;;;;;3.41;80.00;99425.19;4982645;28;20021;-88
2024/01/06 03:50:41;;;;;;;;;;;;;;;3.36;80.42;99426.94;4984316;28;19953;-88
2024/01/06 03:53:07;;;;;;;;;;;;;;;3.34;80.72;99425.22;4984082;28;19929;-82
2024/01/06 03:55:34;;;;;;;;;;;;;;;3.33;80.67;99424.34;4986609;28;19929;-84
2024/01/06 03:58:01;;;;;;;;;;;;;;;3.35;80.57;99430.41;4987502;28;20250;-82
2024/01/06 04:00:27;;;;;;;;;;;;;;;3.35;80.90;99434.72;4983650;28;19937;-82
2024/01/06 04:02:54;;;;;;;;;;;;;;;3.32;81.37;99435.59;4989141;28;19933;-83
2024/01/06 04:05:21;;;;;;;;;;;;;;;3.28;81.57;99433.88;4984009;28;19934;-82
2024/01/06 04:07:49;;;;;;;;;;;;;;;3.25;82.15;99439.06;4988045;28;19937;-82
2024/01/06 04:10:16;;;;;;;;;;;;;;;3.21;82.38;99437.34;4976820;28;19932;-81
2024/01/06 04:12:43;;;;;;;;;;;;;;;3.17;82.83;99438.19;4982332;28;20028;-83
2024/01/06 04:15:10;;;;;;;;;;;;;;;3.16;83.14;99428.69;4979688;28;19984;-82
2024/01/06 04:17:36;;;;;;;;;;;;;;;3.12;83.26;99428.69;4982167;28;19926;-82
2024/01/06 04:20:04;;;;;;;;;;;;;;;3.12;83.03;99436.47;4982945;28;19930;-82
2024/01/06 04:22:30;;;;;;;;;;;;;;;3.09;83.58;99427.84;4980274;28;19933;-82
2024/01/06 04:24:57;;;;;;;;;;;;;;;3.10;83.63;99430.44;4984290;28;19926;-83
2024/01/06 04:27:24;;;;;;;;;;;;;;;3.08;84.02;99429.56;4986996;28;19936;-82
2024/01/06 04:29:52;;;;;;;;;;;;;;;3.04;83.83;99425.25;4983251;28;19934;-84
2024/01/06 04:32:19;;;;;;;;;;;;;;;3.07;84.05;99430.44;4981866;28;19934;-84
2024/01/06 04:34:46;;;;;;;;;;;;;;;3.04;84.24;99424.38;4982212;28;19926;-83
2024/01/06 04:37:13;;;;;;;;;;;;;;;3.03;84.10;99428.72;4987602;28;20297;-83
2024/01/06 04:39:40;;;;;;;;;;;;;;;3.02;84.08;99423.53;4997032;28;19926;-82
2024/01/06 04:42:07;;;;;;;;;;;;;;;3.01;84.20;99422.66;4986078;28;19930;-83
2024/01/06 04:44:34;;;;;;;;;;;;;;;3.01;84.12;99430.41;4980748;28;20024;-82
2024/01/06 04:47:01;;;;;;;;;;;;;;;2.97;84.55;99428.72;4985896;28;19926;-81
2024/01/06 04:49:27;;;;;;;;;;;;;;;3.00;84.42;99433.91;4979242;28;20626;-82
2024/01/06 04:51:54;;;;;;;;;;;;;;;3.01;84.37;99429.56;4987090;28;19933;-85
2024/01/06 04:54:21;;;;;;;;;;;;;;;3.02;84.68;99426.97;4984002;28;19993;-82
2024/01/06 04:56:47;;;;;;;;;;;;;;;3.00;84.64;99428.72;4987242;28;19930;-85
2024/01/06 04:59:14;;;;;;;;;;;;;;;3.01;84.78;99435.59;4987656;28;19926;-82
2024/01/06 05:01:41;;;;;;;;;;;;;;;2.99;84.63;99429.56;4981886;28;20030;-82
2024/01/06 05:04:07;;;;;;;;;;;;;;;3.01;85.23;99424.38;4984156;28;20013;-82
2024/01/06 05:06:34;;;;;;;;;;;;;;;3.01;85.11;99422.66;4988044;28;19926;-82
2024/01/06 05:09:01;;;;;;;;;;;;;;;3.04;84.68;99417.50;4985656;28;19929;-82
2024/01/06 05:11:27;;;;;;;;;;;;;;;3.06;84.57;99420.06;4981307;28;19949;-82
2024/01/06 05:13:54;;;;;;;;;;;;;;;3.05;84.59;99424.38;4988716;28;19940;-85
2024/01/06 05:16:21;;;;;;;;;;;;;;;3.05;84.62;99432.16;4988917;28;19932;-82
2024/01/06 05:18:49;;;;;;;;;;;;;;;3.10;84.29;99435.63;4988273;28;19926;-83
2024/01/06 05:21:16;;;;;;;;;;;;;;;3.09;83.87;99440.81;4983314;28;20008;-83
2024/01/06 05:23:43;;;;;;;;;;;;;;;3.13;83.61;99435.63;4998356;28;19926;-82
2024/01/06 05:26:11;;;;;;;;;;;;;;;3.17;83.67;99435.59;4987036;28;20021;-82
2024/01/06 05:28:38;;;;;;;;;;;;;;;3.19;83.52;99445.13;4987837;28;19955;-83
2024/01/06 05:31:04;;;;;;;;;;;;;;;3.27;83.31;99442.50;4985764;28;19925;-84
2024/01/06 05:33:31;;;;;;;;;;;;;;;3.26;82.87;99445.97;4989237;28;19929;-81
2024/01/06 05:35:58;;;;;;;;;;;;;;;3.22;83.27;99444.25;4986235;28;19944;-83
2024/01/06 05:38:25;;;;;;;;;;;;;;;3.21;83.63;99453.75;4984983;28;19929;-85
2024/01/06 05:40:51;;;;;;;;;;;;;;;3.27;83.42;99448.56;4987138;28;19933;-85
2024/01/06 05:43:18;;;;;;;;;;;;;;;3.25;83.47;99455.47;4989557;28;19933;-82
2024/01/06 05:45:45;;;;;;;;;;;;;;;3.26;83.78;99458.94;4984011;28;19932;-82
2024/01/06 05:48:12;;;;;;;;;;;;;;;3.33;83.21;99447.69;4993819;28;19961;-82
2024/01/06 05:50:39;;;;;;;;;;;;;;;3.37;83.21;99453.72;4982290;28;19926;-83
2024/01/06 05:53:06;;;;;;;;;;;;;;;3.37;83.59;99453.72;4991300;28;19936;-85
2024/01/06 05:55:33;;;;;;;;;;;;;;;3.41;83.48;99456.31;4986547;28;20431;-88
2024/01/06 05:58:00;;;;;;;;;;;;;;;3.40;83.60;99454.56;4968399;28;19969;-82
2024/01/06 06:00:27;;;;;;;;;;;;;;;3.45;83.38;99464.97;4983668;28;20017;-83
2024/01/06 06:02:54;;;;;;;;;;;;;;;3.47;82.96;99461.47;4987712;28;19963;-82
2024/01/06 06:05:21;;;;;;;;;;;;;;;3.48;82.91;99471.00;4984925;28;19936;-83
2024/01/06 06:07:47;;;;;;;;;;;;;;;3.48;83.19;99478.78;4986388;28;19996;-84
2024/01/06 06:10:15;;;;;;;;;;;;;;;3.49;83.01;99474.47;4987466;28;19934;-82
2024/01/06 06:12:43;;;;;;;;;;;;;;;3.51;83.31;99479.66;4987996;28;19926;-82
2024/01/06 06:15:09;;;;;;;;;;;;;;;3.55;82.76;99481.34;4987074;28;19973;-86
2024/01/06 06:17:36;;;;;;;;;;;;;;;3.55;82.72;99483.97;4987256;28;19936;-83
2024/01/06 06:20:03;;;;;;;;;;;;;;;3.56;82.75;99480.50;4987160;28;19930;-85
2024/01/06 06:22:30;;;;;;;;;;;;;;;3.57;82.73;99484.84;4988451;28;19926;-85
2024/01/06 06:24:58;;;;;;;;;;;;;;;3.58;83.18;99483.97;4990091;28;19981;-87
2024/01/06 06:27:26;;;;;;;;;;;;;;;3.55;83.10;99495.22;4982019;28;19930;-82
2024/01/06 06:29:53;;;;;;;;;;;;;;;3.56;83.08;99490.88;4982458;28;19925;-82
2024/01/06 06:32:19;;;;;;;;;;;;;;;3.58;82.90;99508.19;4980323;28;19932;-83
2024/01/06 06:34:46;;;;;;;;;;;;;;;3.61;82.61;99502.13;4982234;28;19973;-83
2024/01/06 06:37:13;;;;;;;;;;;;;;;3.67;82.98;99503.84;4981347;28;19965;-82
2024/01/06 06:39:40;;;;;;;;;;;;;;;3.72;82.39;99505.56;4977739;28;20270;-82
2024/01/06 06:42:06;;;;;;;;;;;;;;;3.69;82.86;99505.56;4982318;28;19930;-83
2024/01/06 06:44:34;;;;;;;;;;;;;;;3.70;82.52;99504.69;4992785;28;19962;-92
2024/01/06 06:47:01;;;;;;;;;;;;;;;3.74;82.56;99506.41;4986783;28;20013;-83
2024/01/06 06:49:27;;;;;;;;;;;;;;;3.72;82.95;99510.75;4987333;28;20467;-82
2024/01/06 06:51:55;;;;;;;;;;;;;;;3.71;82.98;99515.94;4987094;28;19926;-83
2024/01/06 06:54:22;;;;;;;;;;;;;;;3.74;82.71;99524.59;4991531;28;19926;-83
2024/01/06 06:56:49;;;;;;;;;;;;;;;3.75;82.73;99523.72;4975359;28;19925;-82
2024/01/06 06:59:16;;;;;;;;;;;;;;;3.77;82.67;99526.31;4987448;28;19926;-86
2024/01/06 07:01:43;;;;;;;;;;;;;;;3.78;82.45;99528.91;4993642;28;19930;-85
2024/01/06 07:04:10;;;;;;;;;;;;;;;3.73;83.08;99530.63;4992475;28;19929;-85
2024/01/06 07:06:36;;;;;;;;;;;;;;;3.77;82.83;99534.09;4989093;28;19933;-85
2024/01/06 07:09:04;;;;;;;;;;;;;;;3.73;83.16;99535.81;4992335;28;20021;-85
2024/01/06 07:11:31;;;;;;;;;;;;;;;3.73;83.15;99543.59;4988437;28;20033;-87
2024/01/06 07:13:58;;;;;;;;;;;;;;;3.80;82.73;99545.31;4991179;28;19937;-85
2024/01/06 07:16:24;;;;;;;;;;;;;;;3.76;83.31;99545.34;4992327;28;19932;-85
2024/01/06 07:18:51;;;;;;;;;;;;;;;3.75;83.21;99549.69;4993844;28;20293;-84
2024/01/06 07:21:18;;;;;;;;;;;;;;;3.79;83.21;99551.38;4999794;28;19926;-84
2024/01/06 07:23:45;;;;;;;;;;;;;;;3.80;82.89;99558.31;4993623;28;19925;-87
2024/01/06 07:26:11;;;;;;;;;;;;;;;3.78;83.21;99557.47;4987464;28;19926;-85
2024/01/06 07:28:38;;;;;;;;;;;;;;;3.78;83.17;99574.75;4992744;28;19926;-85
2024/01/06 07:31:04;;;;;;;;;;;;;;;3.74;83.57;99576.50;4993313;28;19932;-87
2024/01/06 07:33:32;;;;;;;;;;;;;;;3.73;83.65;99577.34;4991783;28;19933;-86
2024/01/06 07:35:59;;;;;;;;;;;;;;;3.75;84.24;99588.59;4991330;28;19953;-86
2024/01/06 07:38:25;;;;;;;;;;;;;;;3.72;84.20;99585.13;4990741;28;19988;-85
2024/01/06 07:40:54;;;;;;;;;;;;;;;4.02;84.39;99599.81;4994695;28;20273;-85
2024/01/06 07:43:21;;;;;;;;;;;;;;;3.78;83.90;99601.59;4992244;28;19925;-86
2024/01/06 07:45:48;;;;;;;;;;;;;;;3.77;84.12;99605.03;4990275;28;19933;-85
2024/01/06 07:48:15;;;;;;;;;;;;;;;3.76;84.35;99602.44;4993021;28;19984;-86
2024/01/06 07:50:42;;;;;;;;;;;;;;;3.77;84.11;99602.44;4993173;28;19957;-85
2024/01/06 07:53:08;;;;;;;;;;;;;;;3.77;84.11;99609.38;4992827;28;19929;-85
2024/01/06 07:55:35;;;;;;;;;;;;;;;3.79;84.27;99607.63;4992935;28;19926;-87
2024/01/06 07:58:02;;;;;;;;;;;;;;;3.75;84.34;99604.19;4993500;28;19977;-86
2024/01/06 08:00:28;;;;;;;;;;;;;;;3.70;84.59;99608.50;4993282;28;19934;-85
2024/01/06 08:02:56;;;;;;;;;;;;;;;3.79;84.65;99608.47;4992951;28;19964;-87
2024/01/06 08:05:22;;;;;;;;;;;;;;;3.85;84.08;99606.75;4992683;28;19926;-85
2024/01/06 08:07:50;;;;;;;;;;;;;;;3.87;84.17;99621.47;4991609;28;19930;-85
2024/01/06 08:10:17;;;;;;;;;;;;;;;3.88;84.38;99617.13;4991484;28;19947;-85
2024/01/06 08:12:44;;;;;;;;;;;;;;;3.83;84.56;99617.13;4991151;28;19933;-86
2024/01/06 08:15:10;;;;;;;;;;;;;;;3.74;85.27;99620.59;4987466;28;19926;-85
2024/01/06 08:17:38;;;;;;;;;;;;;;;3.78;85.01;99624.94;4991667;28;19930;-89
2024/01/06 08:20:05;;;;;;;;;;;;;;;3.83;84.88;99625.78;4989198;28;19926;-85
2024/01/06 08:22:32;;;;;;;;;;;;;;;3.82;84.97;99623.19;4992322;28;19936;-86
2024/01/06 08:24:59;;;;;;;;;;;;;;;3.82;85.31;99631.88;4991681;28;19984;-86
2024/01/06 08:27:26;;;;;;;;;;;;;;;3.77;85.96;99636.19;4988652;28;19930;-86
2024/01/06 08:29:52;;;;;;;;;;;;;;;3.75;86.10;99635.31;4989797;28;19932;-86
2024/01/06 08:32:19;;;;;;;;;;;;;;;3.74;86.54;99636.19;4988082;28;19930;-86
2024/01/06 08:34:46;;;;;;;;;;;;;;;3.74;86.62;99641.38;4988845;28;19932;-88
2024/01/06 08:37:13;;;;;;;;;;;;;;;3.78;86.34;99647.41;4989749;28;19962;-86
2024/01/06 08:39:39;;;;;;;;;;;;;;;3.77;86.90;99641.38;4982065;28;19925;-86
2024/01/06 08:42:06;;;;;;;;;;;;;;;3.77;87.01;99650.91;4996702;28;19925;-86
2024/01/06 08:44:33;;;;;;;;;;;;;;;3.75;87.22;99650.91;4966092;28;19926;-85
2024/01/06 08:47:00;;;;;;;;;;;;;;;3.72;87.74;99655.19;4991238;28;19933;-86
2024/01/06 08:49:26;;;;;;;;;;;;;;;3.68;87.93;99656.06;4992775;28;19926;-86
2024/01/06 08:51:53;;;;;;;;;;;;;;;3.69;87.71;99656.06;4992194;28;19933;-86
2024/01/06 08:54:20;;;;;;;;;;;;;;;3.70;87.96;99665.59;4988572;28;19965;-88
2024/01/06 08:56:47;;;;;;;;;;;;;;;3.71;88.09;99662.13;4987820;28;19926;-86
2024/01/06 08:59:13;;;;;;;;;;;;;;;3.72;88.51;99670.78;4989560;28;19933;-86
2024/01/06 09:01:40;;;;;;;;;;;;;;;3.74;88.62;99674.25;4984822;28;19925;-88
2024/01/06 09:04:07;;;;;;;;;;;;;;;3.93;88.72;99677.72;4993074;28;20356;-87
2024/01/06 09:06:34;;;;;;;;;;;;;;;3.78;88.23;99674.25;4994734;28;19955;-87
2024/01/06 09:09:00;;;;;;;;;;;;;;;3.80;88.41;99677.69;4990639;28;19970;-86
2024/01/06 09:11:27;;;;;;;;;;;;;;;3.83;88.46;99677.69;4991267;28;20004;-85
2024/01/06 09:13:54;;;;;;;;;;;;;;;3.86;88.90;99675.97;4991960;28;19944;-85
2024/01/06 09:16:21;;;;;;;;;;;;;;;3.86;88.56;99675.97;4991151;28;20001;-86
2024/01/06 09:18:49;;;;;;;;;;;;;;;3.91;88.54;99684.63;4985480;28;19933;-85
2024/01/06 09:21:17;;;;;;;;;;;;;;;3.96;88.23;99680.31;4990323;28;19996;-84
2024/01/06 09:23:44;;;;;;;;;;;;;;;3.99;88.09;99677.69;4991771;28;19977;-85
2024/01/06 09:26:11;;;;;;;;;;;;;;;4.00;87.62;99685.50;4985811;28;19936;-87
2024/01/06 09:28:37;;;;;;;;;;;;;;;4.03;87.58;99689.81;4989019;28;19930;-86
2024/01/06 09:31:04;;;;;;;;;;;;;;;4.10;88.00;99690.66;4989568;28;20033;-85
2024/01/06 09:33:33;;;;;;;;;;;;;;;4.10;87.43;99683.75;4989127;28;19926;-86
2024/01/06 09:36:01;;;;;;;;;;;;;;;4.13;87.42;99688.09;4991462;28;19932;-85
2024/01/06 09:38:28;;;;;;;;;;;;;;;4.12;86.89;99688.94;4991110;28;19926;-85
2024/01/06 09:40:55;;;;;;;;;;;;;;;4.17;87.21;99697.59;4990792;28;19937;-85
2024/01/06 09:43:22;;;;;;;;;;;;;;;4.20;87.30;99701.91;4989368;28;19926;-86
2024/01/06 09:45:53;;;;;;;;;;;;;;;4.19;87.09;99695.88;4972489;28;19981;-86
2024/01/06 09:48:20;;;;;;;;;;;;;;;4.17;87.29;99698.47;4985663;28;19972;-85
2024/01/06 09:50:47;;;;;;;;;;;;;;;4.20;87.17;99701.91;4985985;28;19949;-84
2024/01/06 09:53:14;;;;;;;;;;;;;;;4.21;87.22;99703.66;4994514;28;20413;-85
2024/01/06 09:55:41;;;;;;;;;;;;;;;4.25;87.24;99701.06;4994876;28;20361;-85
2024/01/06 09:58:08;;;;;;;;;;;;;;;4.27;87.03;99704.53;4991299;28;19926;-84
2024/01/06 10:00:35;;;;;;;;;;;;;;;4.26;86.78;99707.09;4986817;28;19932;-88
2024/01/06 10:03:01;;;;;;;;;;;;;;;4.27;86.53;99708.84;4996485;28;19930;-87
2024/01/06 10:05:28;;;;;;;;;;;;;;;4.32;86.43;99717.50;4988467;28;19949;-85
2024/01/06 10:07:55;;;;;;;;;;;;;;;4.27;86.69;99714.03;4995026;28;20347;-85
2024/01/06 10:10:22;;;;;;;;;;;;;;;4.26;86.86;99720.09;4993778;28;19926;-85
2024/01/06 10:12:49;;;;;;;;;;;;;;;4.26;86.96;99712.28;4988059;28;20011;-85
2024/01/06 10:15:16;;;;;;;;;;;;;;;4.23;87.11;99712.31;4992207;28;19925;-88
2024/01/06 10:17:43;;;;;;;;;;;;;;;4.24;87.52;99714.03;4993735;28;20017;-87
2024/01/06 10:20:11;;;;;;;;;;;;;;;4.28;87.75;99710.59;4993302;28;19976;-85
2024/01/06 10:22:38;;;;;;;;;;;;;;;4.25;88.11;99708.00;4988359;28;20021;-84
2024/01/06 10:25:06;;;;;;;;;;;;;;;4.27;88.43;99701.94;4977443;28;19925;-85
2024/01/06 10:27:36;;;;;;;;;;;;;;;4.31;88.29;99700.19;4995066;28;19930;-90
2024/01/06 10:30:03;;;;;;;;;;;;;;;4.35;87.87;99689.78;4988120;28;19925;-84
2024/01/06 10:32:33;;;;;;;;;;;;;;;4.50;88.38;99688.03;4987889;28;19925;-87
2024/01/06 10:35:01;;;;;;;;;;;;;;;4.61;88.51;99682.81;4984659;28;19930;-85
2024/01/06 10:37:28;;;;;;;;;;;;;;;4.62;87.86;99680.22;4989961;28;19929;-85
2024/01/06 10:40:13;;;;;;;;;;;;;;;4.69;88.09;99681.03;4994152;28;19945;-89
2024/01/06 10:42:41;;;;;;;;;;;;;;;4.60;87.27;99676.72;4992314;28;19988;-86
2024/01/06 10:45:09;;;;;;;;;;;;;;;4.67;86.83;99677.59;4989314;28;20017;-86
2024/01/06 10:47:37;;;;;;;;;;;;;;;4.74;86.96;99679.28;4989049;28;19961;-85
2024/01/06 10:50:04;;;;;;;;;;;;;;;4.79;86.68;99682.72;4988365;28;19926;-88
2024/01/06 10:52:31;;;;;;;;;;;;;;;4.93;86.28;99681.84;4990810;28;19956;-87
2024/01/06 10:54:58;;;;;;;;;;;;;;;5.03;86.33;99684.38;4982744;28;19934;-88
2024/01/06 10:57:25;;;;;;;;;;;;;;;5.02;85.11;99689.59;4979262;28;20032;-91
2024/01/06 10:59:52;;;;;;;;;;;;;;;5.03;85.17;99686.13;4979478;28;19975;-85
2024/01/06 11:02:19;;;;;;;;;;;;;;;5.02;84.65;99686.97;4986319;28;19930;-85
2024/01/06 11:04:47;;;;;;;;;;;;;;;5.05;84.22;99692.16;4988987;28;19941;-87
2024/01/06 11:07:14;;;;;;;;;;;;;;;5.23;85.64;99692.09;4998058;28;19926;-85
2024/01/06 11:09:42;;;;;;;;;;;;;;;5.32;86.02;99687.72;4978798;28;19932;-85
2024/01/06 11:12:09;;;;;;;;;;;;;;;5.45;86.26;99689.38;4987082;28;19934;-84
2024/01/06 11:14:37;;;;;;;;;;;;;;;5.45;85.89;99688.50;4990327;28;19971;-84
2024/01/06 11:17:04;;;;;;;;;;;;;;;5.59;85.85;99684.09;4985040;28;19936;-88
2024/01/06 11:19:37;;;;;;;;;;;;;;;5.66;85.29;99682.28;4985990;28;19925;-84
2024/01/06 11:22:20;;;;;;;;;;;;;;;5.53;83.94;99687.59;4982791;28;19933;-85
2024/01/06 11:24:49;;;;;;;;;;;;;;;5.56;84.05;99684.97;4988643;28;19984;-88
2024/01/06 11:27:28;;;;;;;;;;;;;;;5.65;84.12;99680.53;4987130;28;20017;-87
2024/01/06 11:29:56;;;;;;;;;;;;;;;5.70;84.10;99679.63;4989625;28;19933;-86
2024/01/06 11:32:26;;;;;;;;;;;;;;;5.68;84.32;99680.53;4989447;28;19941;-86
2024/01/06 11:34:54;;;;;;;;;;;;;;;5.82;84.81;99677.81;4981835;28;19930;-87
2024/01/06 11:37:36;;;;;;;;;;;;;;;5.82;84.13;99677.81;4985298;28;19985;-85
2024/01/06 11:40:03;;;;;;;;;;;;;;;5.77;84.08;99677.88;4992815;28;19925;-87
2024/01/06 11:42:33;;;;;;;;;;;;;;;5.77;83.88;99677.88;4992224;28;19941;-87
2024/01/06 11:45:01;;;;;;;;;;;;;;;5.72;84.04;99682.22;4994229;28;19984;-88
2024/01/06 11:47:30;;;;;;;;;;;;;;;5.69;83.97;99687.47;4985367;28;19981;-86
2024/01/06 11:49:57;;;;;;;;;;;;;;;5.63;83.42;99677.94;5003236;28;19948;-85
2024/01/06 11:52:25;;;;;;;;;;;;;;;5.61;83.73;99679.72;4988238;28;19925;-86
2024/01/06 11:54:52;;;;;;;;;;;;;;;5.64;84.07;99681.44;4987189;28;20033;-87
2024/01/06 11:57:19;;;;;;;;;;;;;;;5.66;83.67;99682.28;4987621;28;20008;-88
2024/01/06 11:59:46;;;;;;;;;;;;;;;5.75;83.83;99680.47;4989204;28;19925;-86
2024/01/06 12:02:13;;;;;;;;;;;;;;;5.82;83.36;99683.03;4991502;28;19925;-88
2024/01/06 12:04:41;;;;;;;;;;;;;;;5.81;83.66;99686.50;4990945;28;19932;-89
2024/01/06 12:07:08;;;;;;;;;;;;;;;5.80;82.92;99684.78;4980696;28;19937;-89
2024/01/06 12:09:35;;;;;;;;;;;;;;;5.86;83.76;99674.31;4991860;28;19929;-87
2024/01/06 12:12:04;;;;;;;;;;;;;;;5.76;83.21;99676.13;4980760;28;20035;-89
2024/01/06 12:14:32;;;;;;;;;;;;;;;5.68;82.43;99670.13;4982304;28;19938;-88
2024/01/06 12:17:02;;;;;;;;;;;;;;;5.81;83.33;99671.75;4990427;28;20021;-86
2024/01/06 12:19:32;;;;;;;;;;;;;;;5.83;82.80;99675.19;4984619;28;19927;-90
2024/01/06 12:22:05;;;;;;;;;;;;;;;5.93;82.93;99670.78;4985550;28;19926;-86
2024/01/06 12:24:33;;;;;;;;;;;;;;;5.92;83.00;99672.53;4971670;28;19958;-87
2024/01/06 12:27:01;;;;;;;;;;;;;;;5.89;83.42;99666.47;4990792;28;19926;-87
2024/01/06 12:29:31;;;;;;;;;;;;;;;5.82;83.17;99668.28;4973854;28;20016;-89
2024/01/06 12:31:59;;;;;;;;;;;;;;;5.80;83.02;99667.41;4988762;28;19980;-87
2024/01/06 12:34:26;;;;;;;;;;;;;;;5.82;83.64;99672.63;4990806;28;19926;-90
2024/01/06 12:36:56;;;;;;;;;;;;;;;5.75;83.81;99666.59;4983710;28;19940;-86
2024/01/06 12:39:26;;;;;;;;;;;;;;;5.84;84.06;99676.94;4970911;28;19934;-88
2024/01/06 12:41:54;;;;;;;;;;;;;;;5.79;84.02;99668.28;4986534;28;20021;-89
2024/01/06 12:44:20;;;;;;;;;;;;;;;5.74;84.46;99675.28;4988490;28;19980;-88
2024/01/06 12:46:47;;;;;;;;;;;;;;;5.69;85.19;99679.66;4989778;28;19969;-87
2024/01/06 12:49:14;;;;;;;;;;;;;;;5.63;84.81;99677.94;4969874;28;19977;-87
2024/01/06 12:51:41;;;;;;;;;;;;;;;5.54;85.39;99678.88;4985528;28;19926;-87
2024/01/06 12:54:08;;;;;;;;;;;;;;;5.61;85.05;99671.06;4992285;28;19930;-85
2024/01/06 12:56:35;;;;;;;;;;;;;;;5.58;85.18;99680.59;4996145;28;19926;-86